createdAt,value
2019-03-22T00:00:31.871Z,5.90
2019-03-22T00:03:01.521Z,5.67
2019-03-22T00:05:28.859Z,5.42
2019-03-22T00:08:02.481Z,5.97
2019-03-22T00:10:30.905Z,5.62
2019-03-22T00:12:59.612Z,5.42
2019-03-22T00:15:30.269Z,5.42
2019-03-22T00:17:58.011Z,5.90
2019-03-22T00:20:25.725Z,5.65
2019-03-22T00:23:00.570Z,5.78
2019-03-22T00:25:27.628Z,5.78
2019-03-22T00:27:54.835Z,5.60
2019-03-22T00:30:24.518Z,5.47
2019-03-22T00:32:53.949Z,5.60
2019-03-22T00:35:25.273Z,5.40
2019-03-22T00:37:52.385Z,5.57
2019-03-22T00:40:19.273Z,5.53
2019-03-22T00:42:50.125Z,5.55
2019-03-22T00:45:19.744Z,5.80
2019-03-22T00:47:47.232Z,5.08
2019-03-22T00:50:16.799Z,5.28
2019-03-22T00:52:44.320Z,5.50
2019-03-22T00:55:14.322Z,5.10
2019-03-22T00:57:42.445Z,5.58
2019-03-22T01:00:13.860Z,5.20
2019-03-22T01:02:41.105Z,4.97
2019-03-22T01:05:11.666Z,5.00
2019-03-22T01:07:41.857Z,5.60
2019-03-22T01:10:13.782Z,5.95
2019-03-22T01:12:45.406Z,6.05
2019-03-22T01:15:18.811Z,5.97
2019-03-22T01:17:47.239Z,6.00
2019-03-22T01:20:14.402Z,6.20
2019-03-22T01:22:42.096Z,6.50
2019-03-22T01:25:10.052Z,6.17
2019-03-22T01:27:41.295Z,6.47
2019-03-22T01:30:15.488Z,6.60
2019-03-22T01:32:42.535Z,5.58
2019-03-22T01:35:10.741Z,6.15
2019-03-22T01:37:37.698Z,5.65
2019-03-22T01:40:13.421Z,5.65
2019-03-22T01:42:40.641Z,6.15
2019-03-22T01:45:11.177Z,5.78
2019-03-22T01:47:38.707Z,5.95
2019-03-22T01:50:13.587Z,6.03
2019-03-22T01:52:40.686Z,6.35
2019-03-22T01:55:08.871Z,6.50
2019-03-22T01:57:36.471Z,6.10
2019-03-22T02:00:08.205Z,6.12
2019-03-22T02:02:35.443Z,6.00
2019-03-22T02:05:07.036Z,5.70
2019-03-22T02:07:34.360Z,5.55
2019-03-22T02:10:07.904Z,6.05
2019-03-22T02:12:35.173Z,6.15
2019-03-22T02:15:05.531Z,5.53
2019-03-22T02:17:32.832Z,6.10
2019-03-22T02:20:00.258Z,5.97
2019-03-22T02:22:27.348Z,6.45
2019-03-22T02:24:54.535Z,6.53
2019-03-22T02:27:21.474Z,5.55
2019-03-22T02:29:49.815Z,6.08
2019-03-22T02:32:17.278Z,6.08
2019-03-22T02:34:44.438Z,6.10
2019-03-22T02:37:11.581Z,6.22
2019-03-22T02:39:38.643Z,6.08
2019-03-22T02:42:06.320Z,6.30
2019-03-22T02:44:33.424Z,6.25
2019-03-22T02:47:02.083Z,6.22
2019-03-22T02:49:29.342Z,6.00
2019-03-22T02:51:56.463Z,6.30
2019-03-22T02:54:25.994Z,6.60
2019-03-22T02:56:52.945Z,6.40
2019-03-22T02:59:19.938Z,6.35
2019-03-22T03:01:46.967Z,6.10
2019-03-22T03:04:14.069Z,6.37
2019-03-22T03:06:41.158Z,5.70
2019-03-22T03:09:08.147Z,6.00
2019-03-22T03:11:35.031Z,5.95
2019-03-22T03:14:02.298Z,6.45
2019-03-22T03:16:30.380Z,6.00
2019-03-22T03:18:57.330Z,6.00
2019-03-22T03:21:24.625Z,6.17
2019-03-22T03:23:52.110Z,6.33
2019-03-22T03:26:19.331Z,6.17
2019-03-22T03:28:46.701Z,6.12
2019-03-22T03:31:13.902Z,6.75
2019-03-22T03:33:41.437Z,6.50
2019-03-22T03:36:08.667Z,6.22
2019-03-22T03:38:36.428Z,6.17
2019-03-22T03:41:03.702Z,5.92
2019-03-22T03:43:31.272Z,6.08
2019-03-22T03:45:58.214Z,6.17
2019-03-22T03:48:25.164Z,5.87
2019-03-22T03:50:52.395Z,6.35
2019-03-22T03:53:19.912Z,6.90
2019-03-22T03:55:46.876Z,6.37
2019-03-22T03:58:13.905Z,6.60
2019-03-22T04:00:41.486Z,6.15
2019-03-22T04:03:08.431Z,6.70
2019-03-22T04:05:35.550Z,6.60
2019-03-22T04:08:03.140Z,6.35
2019-03-22T04:10:30.551Z,6.40
2019-03-22T04:12:57.740Z,6.50
2019-03-22T04:15:24.653Z,5.83
2019-03-22T04:17:51.605Z,6.67
2019-03-22T04:20:18.614Z,6.83
2019-03-22T04:22:46.119Z,6.35
2019-03-22T04:25:13.539Z,6.35
2019-03-22T04:27:40.582Z,6.60
2019-03-22T04:30:07.680Z,6.67
2019-03-22T04:32:34.538Z,6.90
2019-03-22T04:35:03.227Z,6.90
2019-03-22T04:37:30.270Z,6.87
2019-03-22T04:39:57.178Z,7.10
2019-03-22T04:42:24.290Z,6.78
2019-03-22T04:44:51.670Z,6.83
2019-03-22T04:47:20.972Z,7.67
2019-03-22T04:49:50.969Z,6.60
2019-03-22T04:52:23.629Z,6.70
2019-03-22T04:54:55.947Z,6.65
2019-03-22T04:57:26.090Z,6.60
2019-03-22T05:00:01.938Z,6.53
2019-03-22T05:02:32.431Z,7.05
2019-03-22T05:05:00.458Z,6.87
2019-03-22T05:07:28.992Z,7.03
2019-03-22T05:09:57.627Z,7.08
2019-03-22T05:12:27.780Z,7.17
2019-03-22T05:14:56.484Z,6.85
2019-03-22T05:17:25.259Z,8.03
2019-03-22T05:19:57.669Z,8.93
2019-03-22T05:22:29.488Z,7.62
2019-03-22T05:25:02.272Z,6.55
2019-03-22T05:27:35.222Z,6.37
2019-03-22T05:30:06.646Z,6.87
2019-03-22T05:32:34.223Z,6.87
2019-03-22T05:35:01.259Z,7.12
2019-03-22T05:37:28.439Z,6.78
2019-03-22T05:39:56.104Z,6.45
2019-03-22T05:42:23.265Z,7.17
2019-03-22T05:44:50.927Z,6.20
2019-03-22T05:47:20.406Z,6.75
2019-03-22T05:49:49.648Z,7.03
2019-03-22T05:52:16.663Z,6.78
2019-03-22T05:54:44.351Z,7.08
2019-03-22T05:57:14.193Z,6.85
2019-03-22T05:59:43.255Z,6.55
2019-03-22T06:02:13.912Z,7.55
2019-03-22T06:04:41.271Z,7.05
2019-03-22T06:07:08.794Z,6.67
2019-03-22T06:09:38.764Z,7.35
2019-03-22T06:12:16.606Z,7.08
2019-03-22T06:14:44.269Z,6.78
2019-03-22T06:17:11.665Z,6.78
2019-03-22T06:19:38.779Z,7.20
2019-03-22T06:22:07.909Z,7.53
2019-03-22T06:24:35.115Z,7.10
2019-03-22T06:27:02.385Z,7.05
2019-03-22T06:29:29.673Z,7.75
2019-03-22T06:31:57.193Z,7.60
2019-03-22T06:34:24.516Z,8.55
2019-03-22T06:36:51.768Z,8.00
2019-03-22T06:39:21.188Z,7.45
2019-03-22T06:41:48.627Z,8.05
2019-03-22T06:44:15.778Z,8.03
2019-03-22T06:46:42.791Z,7.20
2019-03-22T06:49:09.632Z,7.55
2019-03-22T06:51:37.319Z,7.58
2019-03-22T06:54:04.792Z,7.12
2019-03-22T06:56:31.808Z,7.00
2019-03-22T06:58:58.927Z,6.87
2019-03-22T07:01:26.074Z,6.42
2019-03-22T07:03:52.955Z,6.70
2019-03-22T07:06:19.910Z,7.33
2019-03-22T07:08:46.770Z,7.03
2019-03-22T07:11:16.762Z,7.25
2019-03-22T07:13:44.067Z,6.97
2019-03-22T07:16:11.280Z,6.87
2019-03-22T07:18:38.277Z,6.60
2019-03-22T07:21:05.735Z,6.50
2019-03-22T07:23:33.566Z,7.42
2019-03-22T07:26:01.637Z,6.70
2019-03-22T07:28:31.085Z,6.92
2019-03-22T07:30:58.222Z,6.95
2019-03-22T07:33:27.085Z,7.05
2019-03-22T07:35:54.928Z,7.67
2019-03-22T07:38:22.344Z,9.00
2019-03-22T07:40:49.180Z,9.25
2019-03-22T07:43:16.058Z,9.43
2019-03-22T07:45:42.978Z,9.08
2019-03-22T07:48:11.925Z,9.05
2019-03-22T07:50:40.830Z,9.20
2019-03-22T07:53:07.731Z,8.75
2019-03-22T07:55:36.994Z,9.05
2019-03-22T07:58:06.804Z,8.70
2019-03-22T08:00:33.953Z,9.60
2019-03-22T08:03:01.105Z,9.48
2019-03-22T08:05:28.942Z,10.03
2019-03-22T08:07:58.927Z,8.43
2019-03-22T08:10:27.659Z,9.80
2019-03-22T08:12:56.587Z,7.33
2019-03-22T08:15:30.976Z,10.30
2019-03-22T08:17:59.202Z,10.15
2019-03-22T08:20:32.438Z,9.68
2019-03-22T08:22:59.184Z,9.90
2019-03-22T08:25:26.264Z,9.93
2019-03-22T08:27:53.927Z,9.13
2019-03-22T08:30:24.429Z,10.23
2019-03-22T08:32:51.580Z,9.58
2019-03-22T08:35:20.132Z,9.48
2019-03-22T08:37:52.424Z,9.98
2019-03-22T08:40:16.017Z,10.43
2019-03-22T08:42:43.146Z,9.95
2019-03-22T08:45:11.498Z,10.28
2019-03-22T08:47:45.896Z,9.60
2019-03-22T08:50:15.119Z,9.50
2019-03-22T08:52:42.243Z,9.63
2019-03-22T08:55:10.021Z,10.20
2019-03-22T08:57:37.042Z,9.68
2019-03-22T09:00:09.170Z,10.00
2019-03-22T09:02:36.115Z,9.10
2019-03-22T09:05:05.779Z,9.48
2019-03-22T09:07:33.221Z,9.15
2019-03-22T09:10:02.135Z,9.25
2019-03-22T09:12:29.079Z,8.50
2019-03-22T09:14:55.932Z,8.95
2019-03-22T09:17:23.361Z,9.78
2019-03-22T09:19:51.252Z,9.23
2019-03-22T09:22:18.675Z,9.25
2019-03-22T09:24:47.678Z,8.85
2019-03-22T09:27:17.757Z,10.10
2019-03-22T09:29:47.434Z,9.80
2019-03-22T09:32:14.478Z,9.48
2019-03-22T09:34:42.531Z,9.90
2019-03-22T09:37:09.994Z,9.13
2019-03-22T09:39:39.643Z,9.83
2019-03-22T09:42:07.510Z,10.20
2019-03-22T09:44:43.412Z,10.00
2019-03-22T09:47:04.355Z,9.58
2019-03-22T09:49:31.229Z,9.30
2019-03-22T09:51:58.549Z,10.25
2019-03-22T09:54:25.830Z,9.93
2019-03-22T09:56:52.657Z,10.00
2019-03-22T09:59:19.937Z,10.53
2019-03-22T10:01:47.024Z,9.38
2019-03-22T10:04:18.777Z,9.85
2019-03-22T10:06:45.924Z,12.20
2019-03-22T10:09:12.808Z,23.27
2019-03-22T10:11:39.756Z,13.38
2019-03-22T10:14:06.696Z,12.70
2019-03-22T10:16:34.262Z,12.43
2019-03-22T10:19:04.088Z,13.72
2019-03-22T10:21:33.894Z,14.58
2019-03-22T10:24:01.561Z,13.90
2019-03-22T10:26:29.406Z,14.15
2019-03-22T10:29:06.797Z,13.98
2019-03-22T10:31:37.567Z,14.87
2019-03-22T10:34:25.777Z,14.78
2019-03-22T10:36:53.168Z,14.00
2019-03-22T10:39:20.804Z,17.05
2019-03-22T10:41:48.330Z,18.05
2019-03-22T10:44:15.608Z,16.37
2019-03-22T10:46:43.458Z,15.60
2019-03-22T10:49:12.685Z,15.60
2019-03-22T10:51:39.866Z,15.43
2019-03-22T10:54:07.174Z,16.20
2019-03-22T10:56:34.962Z,15.70
2019-03-22T10:59:01.904Z,15.35
2019-03-22T11:01:52.396Z,15.68
2019-03-22T11:04:17.039Z,16.00
2019-03-22T11:06:44.125Z,16.55
2019-03-22T11:09:11.390Z,16.30
2019-03-22T11:11:38.947Z,17.20
2019-03-22T11:14:06.796Z,17.12
2019-03-22T11:16:34.408Z,16.30
2019-03-22T11:19:02.151Z,16.67
2019-03-22T11:21:29.368Z,16.15
2019-03-22T11:24:00.637Z,16.75
2019-03-22T11:26:27.627Z,16.20
2019-03-22T11:28:54.911Z,17.30
2019-03-22T11:31:28.693Z,16.87
2019-03-22T11:33:53.213Z,17.10
2019-03-22T11:36:20.700Z,16.35
2019-03-22T11:38:47.907Z,17.00
2019-03-22T11:41:15.259Z,16.30
2019-03-22T11:43:42.342Z,17.17
2019-03-22T11:46:09.686Z,17.57
2019-03-22T11:48:36.876Z,18.65
2019-03-22T11:51:09.383Z,19.80
2019-03-22T11:53:38.778Z,19.12
2019-03-22T11:56:05.957Z,16.97
2019-03-22T11:58:33.320Z,17.77
2019-03-22T12:01:00.629Z,16.93
2019-03-22T12:03:27.454Z,17.20
2019-03-22T12:05:55.136Z,16.48
2019-03-22T12:08:22.634Z,17.40
2019-03-22T12:10:50.158Z,17.12
2019-03-22T12:13:16.966Z,17.85
2019-03-22T12:15:43.815Z,16.55
2019-03-22T12:18:10.750Z,17.65
2019-03-22T12:20:38.125Z,17.80
2019-03-22T12:23:05.297Z,16.70
2019-03-22T12:25:32.417Z,17.62
2019-03-22T12:27:59.828Z,17.05
2019-03-22T12:30:26.709Z,19.00
2019-03-22T12:32:53.815Z,17.37
2019-03-22T12:35:21.351Z,16.87
2019-03-22T12:37:48.632Z,16.97
2019-03-22T12:40:24.679Z,18.25
2019-03-22T12:42:53.185Z,16.82
2019-03-22T12:45:36.178Z,16.82
2019-03-22T12:50:40.643Z,16.02
2019-03-22T12:53:10.136Z,16.77
2019-03-22T12:55:37.855Z,16.05
2019-03-22T12:58:04.955Z,16.60
2019-03-22T13:00:32.534Z,17.12
2019-03-22T13:02:59.580Z,17.12
2019-03-22T13:05:26.887Z,17.12
2019-03-22T13:07:54.285Z,16.62
2019-03-22T13:10:26.230Z,15.48
2019-03-22T13:13:18.412Z,16.90
2019-03-22T13:15:47.551Z,16.93
2019-03-22T13:18:15.026Z,17.05
2019-03-22T13:20:45.029Z,16.60
2019-03-22T13:23:12.535Z,16.97
2019-03-22T13:25:40.105Z,16.25
2019-03-22T13:28:07.235Z,15.48
2019-03-22T13:30:37.415Z,13.48
2019-03-22T13:33:04.871Z,14.98
2019-03-22T13:35:40.154Z,15.85
2019-03-22T13:38:07.129Z,13.93
2019-03-22T13:40:34.308Z,15.23
2019-03-22T13:43:01.771Z,15.50
2019-03-22T13:45:28.890Z,15.83
2019-03-22T13:47:58.242Z,14.78
2019-03-22T13:50:25.393Z,13.90
2019-03-22T13:52:52.490Z,14.35
2019-03-22T13:55:19.869Z,14.20
2019-03-22T13:57:46.712Z,14.30
2019-03-22T14:00:17.727Z,12.80
2019-03-22T14:02:44.912Z,13.60
2019-03-22T14:05:12.382Z,13.43
2019-03-22T14:07:39.414Z,13.70
2019-03-22T14:10:10.260Z,14.33
2019-03-22T14:12:37.486Z,14.15
2019-03-22T14:15:06.744Z,14.50
2019-03-22T14:17:33.933Z,14.63
2019-03-22T14:20:10.465Z,13.83
2019-03-22T14:22:30.125Z,14.65
2019-03-22T14:24:57.453Z,14.60
2019-03-22T14:27:26.735Z,13.40
2019-03-22T14:29:54.068Z,14.23
2019-03-22T14:32:21.525Z,14.78
2019-03-22T14:34:50.035Z,22.70
2019-03-22T14:37:22.184Z,14.47
2019-03-22T14:39:49.714Z,14.73
2019-03-22T14:42:20.473Z,14.60
2019-03-22T14:44:48.388Z,14.38
2019-03-22T14:47:16.557Z,13.15
2019-03-22T14:49:45.554Z,13.58
2019-03-22T14:52:12.491Z,14.05
2019-03-22T14:54:39.276Z,14.63
2019-03-22T14:57:06.167Z,14.98
2019-03-22T14:59:33.151Z,14.30
2019-03-22T15:02:00.600Z,12.80
2019-03-22T15:04:27.393Z,13.62
2019-03-22T15:06:54.534Z,14.35
2019-03-22T15:09:23.487Z,14.28
2019-03-22T15:11:56.122Z,13.30
2019-03-22T15:14:24.959Z,14.65
2019-03-22T15:17:12.607Z,12.93
2019-03-22T15:19:47.603Z,13.58
2019-03-22T15:22:25.768Z,14.30
2019-03-22T15:24:52.633Z,12.90
2019-03-22T15:27:21.859Z,13.20
2019-03-22T15:29:53.899Z,13.40
2019-03-22T15:32:29.885Z,13.43
2019-03-22T15:35:18.169Z,12.78
2019-03-22T15:37:57.459Z,12.95
2019-03-22T15:40:24.480Z,13.20
2019-03-22T15:42:52.858Z,13.38
2019-03-22T15:45:19.824Z,12.90
2019-03-22T15:47:48.860Z,12.75
2019-03-22T15:50:18.189Z,12.43
2019-03-22T15:52:45.970Z,11.97
2019-03-22T15:55:13.414Z,12.07
2019-03-22T15:57:44.313Z,12.20
2019-03-22T16:00:15.925Z,12.60
2019-03-22T16:02:44.173Z,12.88
2019-03-22T16:05:18.739Z,13.13
2019-03-22T16:07:45.934Z,13.58
2019-03-22T16:10:12.900Z,13.00
2019-03-22T16:12:41.021Z,13.03
2019-03-22T16:15:13.258Z,11.53
2019-03-22T16:17:40.309Z,12.28
2019-03-22T16:20:11.482Z,12.33
2019-03-22T16:22:38.928Z,13.22
2019-03-22T16:25:09.048Z,12.20
2019-03-22T16:27:36.549Z,11.05
2019-03-22T16:30:08.481Z,11.80
2019-03-22T16:32:35.548Z,11.20
2019-03-22T16:35:06.926Z,11.40
2019-03-22T16:37:35.699Z,11.15
2019-03-22T16:40:04.807Z,10.60
2019-03-22T16:42:33.925Z,10.63
2019-03-22T16:45:03.200Z,10.30
2019-03-22T16:47:30.135Z,9.58
2019-03-22T16:49:56.992Z,10.63
2019-03-22T16:52:23.834Z,10.60
2019-03-22T16:54:52.551Z,9.33
2019-03-22T16:57:19.688Z,9.33
2019-03-22T16:59:46.886Z,9.73
2019-03-22T17:02:14.229Z,9.10
2019-03-22T17:04:41.779Z,9.25
2019-03-22T17:07:09.488Z,9.10
2019-03-22T17:09:36.816Z,8.85
2019-03-22T17:12:03.969Z,8.58
2019-03-22T17:14:32.597Z,8.80
2019-03-22T17:16:59.839Z,8.28
2019-03-22T17:19:27.061Z,8.55
2019-03-22T17:21:54.332Z,8.43
2019-03-22T17:24:21.591Z,7.70
2019-03-22T17:26:48.471Z,7.70
2019-03-22T17:29:15.975Z,7.40
2019-03-22T17:31:43.188Z,8.78
2019-03-22T17:34:14.140Z,8.25
2019-03-22T17:36:39.624Z,8.88
2019-03-22T17:39:06.641Z,9.85
2019-03-22T17:41:33.986Z,10.25
2019-03-22T17:44:01.348Z,10.78
2019-03-22T17:46:28.451Z,14.70
2019-03-22T17:48:56.264Z,15.08
2019-03-22T17:51:23.442Z,15.98
2019-03-22T17:53:50.551Z,13.98
2019-03-22T17:56:17.726Z,12.00
2019-03-22T17:58:44.759Z,10.25
2019-03-22T18:01:12.669Z,9.53
2019-03-22T18:03:42.586Z,9.80
2019-03-22T18:06:09.797Z,7.65
2019-03-22T18:08:37.360Z,7.95
2019-03-22T18:11:04.716Z,7.47
2019-03-22T18:13:31.925Z,7.22
2019-03-22T18:15:58.842Z,7.00
2019-03-22T18:18:26.378Z,6.65
2019-03-22T18:20:53.590Z,6.00
2019-03-22T18:23:22.174Z,5.92
2019-03-22T18:25:49.436Z,6.30
2019-03-22T18:28:19.781Z,6.75
2019-03-22T18:30:46.613Z,7.22
2019-03-22T18:33:13.983Z,6.85
2019-03-22T18:35:41.612Z,6.20
2019-03-22T18:38:09.030Z,5.55
2019-03-22T18:40:38.185Z,6.03
2019-03-22T18:43:06.777Z,6.12
2019-03-22T18:45:33.700Z,6.70
2019-03-22T18:48:00.818Z,6.60
2019-03-22T18:50:27.839Z,6.42
2019-03-22T18:52:55.102Z,6.17
2019-03-22T18:55:22.583Z,5.92
2019-03-22T18:57:49.482Z,6.03
2019-03-22T19:00:17.487Z,6.50
2019-03-22T19:02:44.387Z,6.83
2019-03-22T19:05:12.438Z,6.80
2019-03-22T19:07:39.305Z,7.40
2019-03-22T19:10:11.766Z,7.12
2019-03-22T19:12:38.870Z,6.58
2019-03-22T19:15:09.731Z,6.78
2019-03-22T19:17:37.249Z,6.95
2019-03-22T19:20:07.920Z,6.83
2019-03-22T19:22:34.769Z,7.22
2019-03-22T19:25:02.536Z,7.05
2019-03-22T19:27:29.718Z,7.83
2019-03-22T19:29:57.142Z,6.95
2019-03-22T19:32:24.215Z,7.00
2019-03-22T19:34:54.651Z,6.45
2019-03-22T19:37:19.799Z,6.60
2019-03-22T19:39:46.743Z,7.03
2019-03-22T19:42:13.639Z,6.70
2019-03-22T19:44:41.015Z,6.70
2019-03-22T19:47:08.806Z,6.55
2019-03-22T19:49:36.022Z,6.85
2019-03-22T19:52:03.650Z,6.70
2019-03-22T19:54:30.565Z,7.22
2019-03-22T19:56:57.736Z,7.20
2019-03-22T19:59:24.523Z,7.83
2019-03-22T20:01:51.766Z,7.78
2019-03-22T20:04:18.543Z,7.45
2019-03-22T20:06:45.310Z,8.15
2019-03-22T20:09:12.480Z,8.68
2019-03-22T20:11:39.397Z,9.20
2019-03-22T20:14:06.478Z,9.28
2019-03-22T20:16:33.431Z,9.95
2019-03-22T20:19:00.567Z,10.03
2019-03-22T20:21:27.482Z,10.00
2019-03-22T20:23:54.414Z,10.75
2019-03-22T20:26:22.175Z,9.98
2019-03-22T20:28:48.924Z,9.80
2019-03-22T20:31:15.897Z,9.95
2019-03-22T20:33:43.133Z,10.15
2019-03-22T20:36:10.917Z,9.33
2019-03-22T20:38:37.858Z,9.58
2019-03-22T20:41:04.992Z,8.78
2019-03-22T20:43:33.754Z,8.93
2019-03-22T20:46:02.205Z,9.35
2019-03-22T20:48:29.093Z,8.98
2019-03-22T20:50:56.543Z,9.48
2019-03-22T20:53:26.128Z,9.28
2019-03-22T20:55:53.214Z,8.68
2019-03-22T20:58:20.572Z,8.65
2019-03-22T21:00:47.548Z,9.28
2019-03-22T21:03:14.488Z,9.75
2019-03-22T21:05:41.685Z,9.05
2019-03-22T21:08:08.472Z,9.00
2019-03-22T21:10:35.309Z,9.25
2019-03-22T21:13:02.375Z,8.83
2019-03-22T21:15:30.280Z,9.40
2019-03-22T21:18:00.511Z,8.83
2019-03-22T21:20:32.159Z,9.55
2019-03-22T21:23:03.327Z,9.20
2019-03-22T21:25:32.338Z,9.48
2019-03-22T21:28:03.909Z,8.70
2019-03-22T21:30:31.614Z,9.27
2019-03-22T21:33:00.569Z,9.10
2019-03-22T21:35:36.880Z,8.78
2019-03-22T21:38:09.987Z,9.13
2019-03-22T21:40:29.515Z,8.53
2019-03-22T21:42:57.315Z,8.95
2019-03-22T21:45:25.990Z,9.55
2019-03-22T21:47:53.181Z,9.75
2019-03-22T21:50:20.270Z,9.38
2019-03-22T21:52:47.425Z,9.80
2019-03-22T21:55:14.210Z,9.38
2019-03-22T21:57:41.083Z,10.08
2019-03-22T22:00:13.467Z,9.65
2019-03-22T22:02:40.664Z,8.83
2019-03-22T22:05:07.803Z,10.30
2019-03-22T22:07:34.593Z,11.00
2019-03-22T22:10:05.099Z,10.43
2019-03-22T22:12:32.275Z,10.13
2019-03-22T22:15:36.207Z,9.53
2019-03-22T22:18:09.608Z,9.70
2019-03-22T22:20:37.779Z,9.70
2019-03-22T22:23:04.679Z,8.78
2019-03-22T22:25:31.845Z,9.15
2019-03-22T22:27:58.867Z,8.90
2019-03-22T22:30:25.663Z,9.20
2019-03-22T22:32:52.602Z,10.08
2019-03-22T22:35:19.824Z,9.03
2019-03-22T22:37:46.844Z,9.20
2019-03-22T22:40:16.649Z,9.18
2019-03-22T22:42:44.215Z,9.30
2019-03-22T22:45:12.419Z,9.15
2019-03-22T22:47:41.878Z,8.95
2019-03-22T22:50:10.891Z,9.38
2019-03-22T22:52:38.170Z,9.58
2019-03-22T22:55:08.171Z,9.30
2019-03-22T22:57:37.438Z,9.25
2019-03-22T23:00:13.250Z,9.25
2019-03-22T23:02:40.254Z,9.43
2019-03-22T23:05:07.430Z,8.98
2019-03-22T23:07:35.714Z,9.53
2019-03-22T23:10:04.838Z,9.25
2019-03-22T23:12:32.242Z,10.18
2019-03-22T23:14:59.160Z,9.83
2019-03-22T23:17:27.407Z,10.35
2019-03-22T23:19:54.344Z,9.50
2019-03-22T23:22:22.351Z,9.48
2019-03-22T23:24:49.333Z,9.98
2019-03-22T23:27:16.377Z,9.18
2019-03-22T23:29:45.855Z,9.60
2019-03-22T23:32:12.861Z,9.25
2019-03-22T23:34:39.908Z,8.93
2019-03-22T23:37:07.330Z,9.50
2019-03-22T23:39:34.591Z,9.10
2019-03-22T23:42:01.364Z,9.15
2019-03-22T23:44:28.232Z,8.98
2019-03-22T23:46:55.429Z,9.73
2019-03-22T23:49:22.361Z,9.58
2019-03-22T23:51:49.219Z,10.00
2019-03-22T23:54:16.355Z,9.88
2019-03-22T23:56:43.674Z,9.78
2019-03-22T23:59:10.947Z,9.48
